sensor_id;sensor_type;location;lat;lon;timestamp;pressure;altitude;pressure_sealevel;temperature;humidity
65760;BME280;52496;51.082;5.066;2023-02-26T00:02:01;101728.16;;;-1.52;100.00
65760;BME280;52496;51.082;5.066;2023-02-26T00:04:32;101736.78;;;-1.50;100.00
65760;BME280;52496;51.082;5.066;2023-02-26T00:07:03;101736.03;;;-1.52;100.00
65760;BME280;52496;51.082;5.066;2023-02-26T00:09:35;101736.03;;;-1.52;100.00
65760;BME280;52496;51.082;5.066;2023-02-26T00:12:06;101736.78;;;-1.50;100.00
65760;BME280;52496;51.082;5.066;2023-02-26T00:14:37;101742.19;;;-1.53;100.00
65760;BME280;52496;51.082;5.066;2023-02-26T00:17:43;101744.97;;;-1.56;100.00
65760;BME280;52496;51.082;5.066;2023-02-26T00:20:15;101748.44;;;-1.55;100.00
65760;BME280;52496;51.082;5.066;2023-02-26T00:22:46;101748.44;;;-1.55;100.00
65760;BME280;52496;51.082;5.066;2023-02-26T00:25:17;101748.28;;;-1.52;100.00
65760;BME280;52496;51.082;5.066;2023-02-26T00:27:48;101754.41;;;-1.52;100.00
65760;BME280;52496;51.082;5.066;2023-02-26T00:30:19;101751.78;;;-1.52;100.00
65760;BME280;52496;51.082;5.066;2023-02-26T00:32:50;101765.63;;;-1.50;100.00
65760;BME280;52496;51.082;5.066;2023-02-26T00:35:21;101764.72;;;-1.49;100.00
65760;BME280;52496;51.082;5.066;2023-02-26T00:38:02;101763.84;;;-1.49;100.00
65760;BME280;52496;51.082;5.066;2023-02-26T00:43:15;101773.34;;;-1.47;100.00
65760;BME280;52496;51.082;5.066;2023-02-26T00:49:00;101777.84;;;-1.49;100.00
65760;BME280;52496;51.082;5.066;2023-02-26T00:51:48;101775.97;;;-1.47;100.00
65760;BME280;52496;51.082;5.066;2023-02-26T00:54:23;101775.13;;;-1.47;100.00
65760;BME280;52496;51.082;5.066;2023-02-26T00:56:56;101783.16;;;-1.50;100.00
65760;BME280;52496;51.082;5.066;2023-02-26T00:59:27;101781.53;;;-1.53;100.00
65760;BME280;52496;51.082;5.066;2023-02-26T01:01:57;101781.88;;;-1.59;100.00
65760;BME280;52496;51.082;5.066;2023-02-26T01:04:28;101781.28;;;-1.64;100.00
65760;BME280;52496;51.082;5.066;2023-02-26T01:06:59;101786.53;;;-1.64;100.00
65760;BME280;52496;51.082;5.066;2023-02-26T01:09:32;101780.34;;;-1.63;100.00
65760;BME280;52496;51.082;5.066;2023-02-26T01:12:08;101788.66;;;-1.55;100.00
65760;BME280;52496;51.082;5.066;2023-02-26T01:14:40;101790.19;;;-1.51;100.00
65760;BME280;52496;51.082;5.066;2023-02-26T01:25:30;101782.16;;;-1.32;100.00
65760;BME280;52496;51.082;5.066;2023-02-26T01:28:04;101782.66;;;-1.25;100.00
65760;BME280;52496;51.082;5.066;2023-02-26T01:30:35;101778.94;;;-1.21;100.00
65760;BME280;52496;51.082;5.066;2023-02-26T01:36:06;101785.38;;;-1.11;100.00
65760;BME280;52496;51.082;5.066;2023-02-26T01:38:50;101785.84;;;-1.04;100.00
65760;BME280;52496;51.082;5.066;2023-02-26T01:41:42;101787.22;;;-0.97;100.00
65760;BME280;52496;51.082;5.066;2023-02-26T01:44:55;101794.66;;;-0.89;100.00
65760;BME280;52496;51.082;5.066;2023-02-26T01:50:36;101796.69;;;-0.79;100.00
65760;BME280;52496;51.082;5.066;2023-02-26T01:53:19;101794.63;;;-0.74;100.00
65760;BME280;52496;51.082;5.066;2023-02-26T01:55:55;101802.06;;;-0.66;100.00
65760;BME280;52496;51.082;5.066;2023-02-26T01:58:30;101803.59;;;-0.62;100.00
65760;BME280;52496;51.082;5.066;2023-02-26T02:01:03;101796.66;;;-0.63;100.00
65760;BME280;52496;51.082;5.066;2023-02-26T02:03:36;101808.00;;;-0.62;100.00
65760;BME280;52496;51.082;5.066;2023-02-26T02:06:10;101806.22;;;-0.62;100.00
65760;BME280;52496;51.082;5.066;2023-02-26T02:08:45;101810.72;;;-0.64;100.00
65760;BME280;52496;51.082;5.066;2023-02-26T02:11:16;101810.81;;;-0.65;100.00
65760;BME280;52496;51.082;5.066;2023-02-26T02:14:12;101812.75;;;-0.69;100.00
65760;BME280;52496;51.082;5.066;2023-02-26T02:16:56;101809.38;;;-0.71;100.00
65760;BME280;52496;51.082;5.066;2023-02-26T02:31:57;101827.34;;;-0.79;100.00
65760;BME280;52496;51.082;5.066;2023-02-26T02:34:45;101832.75;;;-0.82;100.00
65760;BME280;52496;51.082;5.066;2023-02-26T02:37:37;101834.66;;;-0.84;100.00
65760;BME280;52496;51.082;5.066;2023-02-26T02:40:18;101840.06;;;-0.87;100.00
65760;BME280;52496;51.082;5.066;2023-02-26T02:45:48;101838.63;;;-0.93;100.00
65760;BME280;52496;51.082;5.066;2023-02-26T02:48:28;101843.94;;;-0.95;100.00
65760;BME280;52496;51.082;5.066;2023-02-26T02:51:04;101844.22;;;-0.99;100.00
65760;BME280;52496;51.082;5.066;2023-02-26T02:53:46;101846.19;;;-1.03;100.00
65760;BME280;52496;51.082;5.066;2023-02-26T02:56:23;101849.88;;;-1.07;100.00
65760;BME280;52496;51.082;5.066;2023-02-26T03:01:43;101857.00;;;-1.09;100.00
65760;BME280;52496;51.082;5.066;2023-02-26T03:04:16;101850.81;;;-1.08;100.00
65760;BME280;52496;51.082;5.066;2023-02-26T03:06:47;101849.97;;;-1.08;100.00
65760;BME280;52496;51.082;5.066;2023-02-26T03:09:19;101859.72;;;-1.10;100.00
65760;BME280;52496;51.082;5.066;2023-02-26T03:11:50;101861.59;;;-1.12;100.00
65760;BME280;52496;51.082;5.066;2023-02-26T03:14:20;101850.38;;;-1.16;100.00
65760;BME280;52496;51.082;5.066;2023-02-26T03:25:40;101878.69;;;-1.21;100.00
65760;BME280;52496;51.082;5.066;2023-02-26T03:30:53;101879.25;;;-1.16;100.00
65760;BME280;52496;51.082;5.066;2023-02-26T03:36:39;101883.75;;;-1.18;100.00
65760;BME280;52496;51.082;5.066;2023-02-26T03:39:22;101885.63;;;-1.20;100.00
65760;BME280;52496;51.082;5.066;2023-02-26T03:42:03;101886.38;;;-1.18;100.00
65760;BME280;52496;51.082;5.066;2023-02-26T03:44:44;101883.75;;;-1.18;100.00
65760;BME280;52496;51.082;5.066;2023-02-26T03:47:16;101890.69;;;-1.17;100.00
65760;BME280;52496;51.082;5.066;2023-02-26T03:49:52;101896.78;;;-1.17;100.00
65760;BME280;52496;51.082;5.066;2023-02-26T03:52:27;101896.78;;;-1.17;100.00
65760;BME280;52496;51.082;5.066;2023-02-26T03:55:16;101902.88;;;-1.16;100.00
65760;BME280;52496;51.082;5.066;2023-02-26T03:57:47;101902.72;;;-1.13;100.00
65760;BME280;52496;51.082;5.066;2023-02-26T04:00:19;101907.13;;;-1.13;100.00
65760;BME280;52496;51.082;5.066;2023-02-26T04:03:13;101912.38;;;-1.13;100.00
65760;BME280;52496;51.082;5.066;2023-02-26T04:05:50;101912.38;;;-1.13;100.00
65760;BME280;52496;51.082;5.066;2023-02-26T04:08:22;101915.84;;;-1.13;100.00
65760;BME280;52496;51.082;5.066;2023-02-26T04:11:14;101913.22;;;-1.13;100.00
65760;BME280;52496;51.082;5.066;2023-02-26T04:13:49;101925.44;;;-1.12;100.00
65760;BME280;52496;51.082;5.066;2023-02-26T04:16:19;101923.72;;;-1.13;100.00
65760;BME280;52496;51.082;5.066;2023-02-26T04:18:51;101923.72;;;-1.13;100.00
65760;BME280;52496;51.082;5.066;2023-02-26T04:21:21;101933.06;;;-1.07;100.00
65760;BME280;52496;51.082;5.066;2023-02-26T04:23:53;101929.41;;;-1.05;100.00
65760;BME280;52496;51.082;5.066;2023-02-26T04:26:23;101930.03;;;-1.00;100.00
65760;BME280;52496;51.082;5.066;2023-02-26T04:28:54;101942.16;;;-0.97;100.00
65760;BME280;52496;51.082;5.066;2023-02-26T04:31:24;101949.94;;;-0.96;100.00
65760;BME280;52496;51.082;5.066;2023-02-26T04:33:55;101941.22;;;-0.96;100.00
65760;BME280;52496;51.082;5.066;2023-02-26T04:36:25;101944.59;;;-0.94;100.00
65760;BME280;52496;51.082;5.066;2023-02-26T04:38:56;101951.44;;;-0.92;100.00
65760;BME280;52496;51.082;5.066;2023-02-26T04:41:26;101955.00;;;-0.93;100.00
65760;BME280;52496;51.082;5.066;2023-02-26T04:43:57;101955.78;;;-0.90;100.00
65760;BME280;52496;51.082;5.066;2023-02-26T04:46:27;101965.44;;;-0.91;100.00
65760;BME280;52496;51.082;5.066;2023-02-26T04:48:58;101971.72;;;-0.94;100.00
65760;BME280;52496;51.082;5.066;2023-02-26T04:51:29;101971.88;;;-0.97;100.00
65760;BME280;52496;51.082;5.066;2023-02-26T04:53:59;101975.41;;;-0.98;100.00
65760;BME280;52496;51.082;5.066;2023-02-26T04:56:30;101976.34;;;-0.99;100.00
65760;BME280;52496;51.082;5.066;2023-02-26T04:59:02;101971.25;;;-1.02;100.00
65760;BME280;52496;51.082;5.066;2023-02-26T05:01:32;101974.88;;;-1.04;100.00
65760;BME280;52496;51.082;5.066;2023-02-26T05:04:03;101988.88;;;-1.04;100.00
65760;BME280;52496;51.082;5.066;2023-02-26T05:06:33;101985.50;;;-1.06;100.00
65760;BME280;52496;51.082;5.066;2023-02-26T05:09:04;101977.63;;;-1.06;100.00
65760;BME280;52496;51.082;5.066;2023-02-26T05:11:35;101990.66;;;-1.04;100.00
65760;BME280;52496;51.082;5.066;2023-02-26T05:14:06;101999.38;;;-1.04;100.00
65760;BME280;52496;51.082;5.066;2023-02-26T05:16:37;101990.75;;;-1.06;100.00
65760;BME280;52496;51.082;5.066;2023-02-26T05:19:07;102003.88;;;-1.06;100.00
65760;BME280;52496;51.082;5.066;2023-02-26T05:21:38;101998.63;;;-1.06;100.00
65760;BME280;52496;51.082;5.066;2023-02-26T05:24:09;101998.63;;;-1.06;100.00
65760;BME280;52496;51.082;5.066;2023-02-26T05:26:40;102002.88;;;-1.03;100.00
65760;BME280;52496;51.082;5.066;2023-02-26T05:29:11;102002.94;;;-1.05;100.00
65760;BME280;52496;51.082;5.066;2023-02-26T05:31:42;102006.50;;;-1.06;100.00
65760;BME280;52496;51.082;5.066;2023-02-26T05:34:12;102004.78;;;-1.07;100.00
65760;BME280;52496;51.082;5.066;2023-02-26T05:36:43;102015.28;;;-1.07;100.00
65760;BME280;52496;51.082;5.066;2023-02-26T05:39:13;102016.38;;;-1.11;100.00
65760;BME280;52496;51.082;5.066;2023-02-26T05:41:44;102014.84;;;-1.15;100.00
65760;BME280;52496;51.082;5.066;2023-02-26T05:44:15;102018.53;;;-1.19;100.00
65760;BME280;52496;51.082;5.066;2023-02-26T05:46:46;102027.50;;;-1.23;100.00
65760;BME280;52496;51.082;5.066;2023-02-26T05:49:17;102033.09;;;-1.29;100.00
65760;BME280;52496;51.082;5.066;2023-02-26T05:51:47;102029.00;;;-1.35;100.00
65760;BME280;52496;51.082;5.066;2023-02-26T05:54:18;102039.72;;;-1.40;100.00
65760;BME280;52496;51.082;5.066;2023-02-26T05:56:49;102043.09;;;-1.38;100.00
65760;BME280;52496;51.082;5.066;2023-02-26T05:59:20;102044.09;;;-1.40;100.00
65760;BME280;52496;51.082;5.066;2023-02-26T06:01:50;102053.91;;;-1.44;100.00
65760;BME280;52496;51.082;5.066;2023-02-26T06:04:21;102054.00;;;-1.45;100.00
65760;BME280;52496;51.082;5.066;2023-02-26T06:06:52;102058.56;;;-1.49;100.00
65760;BME280;52496;51.082;5.066;2023-02-26T06:09:22;102071.84;;;-1.52;100.00
65760;BME280;52496;51.082;5.066;2023-02-26T06:11:52;102074.47;;;-1.52;100.00
65760;BME280;52496;51.082;5.066;2023-02-26T06:14:23;102071.84;;;-1.52;100.00
65760;BME280;52496;51.082;5.066;2023-02-26T06:16:53;102065.81;;;-1.54;100.00
65760;BME280;52496;51.082;5.066;2023-02-26T06:19:24;102076.31;;;-1.54;100.00
65760;BME280;52496;51.082;5.066;2023-02-26T06:21:55;102090.34;;;-1.55;100.00
65760;BME280;52496;51.082;5.066;2023-02-26T06:24:25;102081.59;;;-1.55;100.00
65760;BME280;52496;51.082;5.066;2023-02-26T06:26:56;102092.19;;;-1.57;100.00
65760;BME280;52496;51.082;5.066;2023-02-26T06:29:26;102097.44;;;-1.57;100.00
65760;BME280;52496;51.082;5.066;2023-02-26T06:31:57;102098.22;;;-1.55;100.00
65760;BME280;52496;51.082;5.066;2023-02-26T06:34:28;102100.84;;;-1.55;100.00
65760;BME280;52496;51.082;5.066;2023-02-26T06:36:59;102100.84;;;-1.55;100.00
65760;BME280;52496;51.082;5.066;2023-02-26T06:39:30;102103.38;;;-1.53;100.00
65760;BME280;52496;51.082;5.066;2023-02-26T06:42:00;102107.78;;;-1.54;100.00
65760;BME280;52496;51.082;5.066;2023-02-26T06:44:31;102107.69;;;-1.52;100.00
65760;BME280;52496;51.082;5.066;2023-02-26T06:47:01;102104.06;;;-1.50;100.00
65760;BME280;52496;51.082;5.066;2023-02-26T06:49:32;102111.03;;;-1.49;100.00
65760;BME280;52496;51.082;5.066;2023-02-26T06:52:02;102121.53;;;-1.49;100.00
65760;BME280;52496;51.082;5.066;2023-02-26T06:54:33;102122.28;;;-1.47;100.00
65760;BME280;52496;51.082;5.066;2023-02-26T06:57:03;102121.38;;;-1.46;100.00
65760;BME280;52496;51.082;5.066;2023-02-26T06:59:34;102122.09;;;-1.42;100.00
65760;BME280;52496;51.082;5.066;2023-02-26T07:02:04;102134.19;;;-1.40;100.00
65760;BME280;52496;51.082;5.066;2023-02-26T07:04:35;102140.16;;;-1.36;100.00
65760;BME280;52496;51.082;5.066;2023-02-26T07:07:05;102136.53;;;-1.33;100.00
65760;BME280;52496;51.082;5.066;2023-02-26T07:09:37;102145.16;;;-1.31;100.00
65760;BME280;52496;51.082;5.066;2023-02-26T07:12:07;102145.00;;;-1.28;100.00
65760;BME280;52496;51.082;5.066;2023-02-26T07:14:42;102143.16;;;-1.26;100.00
65760;BME280;52496;51.082;5.066;2023-02-26T07:17:13;102156.97;;;-1.23;100.00
65760;BME280;52496;51.082;5.066;2023-02-26T07:19:50;102153.34;;;-1.20;100.00
65760;BME280;52496;51.082;5.066;2023-02-26T07:22:24;102161.88;;;-1.15;100.00
65760;BME280;52496;51.082;5.066;2023-02-26T07:24:55;102159.84;;;-1.10;100.00
65760;BME280;52496;51.082;5.066;2023-02-26T07:27:25;102170.19;;;-1.07;100.00
65760;BME280;52496;51.082;5.066;2023-02-26T07:29:56;102173.44;;;-1.02;100.00
65760;BME280;52496;51.082;5.066;2023-02-26T07:32:27;102174.81;;;-0.95;99.68
65760;BME280;52496;51.082;5.066;2023-02-26T07:34:57;102177.22;;;-0.90;99.09
65760;BME280;52496;51.082;5.066;2023-02-26T07:37:28;102187.34;;;-0.82;99.31
65760;BME280;52496;51.082;5.066;2023-02-26T07:39:59;102191.38;;;-0.75;98.29
65760;BME280;52496;51.082;5.066;2023-02-26T07:42:30;102191.06;;;-0.69;98.12
65760;BME280;52496;51.082;5.066;2023-02-26T07:45:01;102192.44;;;-0.62;98.15
65760;BME280;52496;51.082;5.066;2023-02-26T07:47:31;102187.69;;;-0.55;97.58
65760;BME280;52496;51.082;5.066;2023-02-26T07:50:02;102190.09;;;-0.51;97.23
65760;BME280;52496;51.082;5.066;2023-02-26T07:52:33;102200.13;;;-0.41;96.07
65760;BME280;52496;51.082;5.066;2023-02-26T07:55:04;102203.22;;;-0.33;96.32
65760;BME280;52496;51.082;5.066;2023-02-26T07:57:35;102209.69;;;-0.23;94.85
65760;BME280;52496;51.082;5.066;2023-02-26T08:00:06;102205.78;;;-0.16;94.76
65760;BME280;52496;51.082;5.066;2023-02-26T08:02:37;102200.22;;;-0.10;94.46
65760;BME280;52496;51.082;5.066;2023-02-26T08:05:07;102208.53;;;-0.02;94.55
65760;BME280;52496;51.082;5.066;2023-02-26T08:07:38;102212.53;;;0.06;92.69
65760;BME280;52496;51.082;5.066;2023-02-26T08:10:10;102217.28;;;0.15;93.48
65760;BME280;52496;51.082;5.066;2023-02-26T08:12:41;102215.22;;;0.21;93.13
65760;BME280;52496;51.082;5.066;2023-02-26T08:15:11;102220.88;;;0.30;92.39
65760;BME280;52496;51.082;5.066;2023-02-26T08:17:45;102209.94;;;0.37;91.70
65760;BME280;52496;51.082;5.066;2023-02-26T08:20:15;102210.34;;;0.45;91.44
65760;BME280;52496;51.082;5.066;2023-02-26T08:22:46;102223.94;;;0.54;90.68
65760;BME280;52496;51.082;5.066;2023-02-26T08:25:16;102226.00;;;0.64;89.45
65760;BME280;52496;51.082;5.066;2023-02-26T08:27:47;102236.84;;;0.74;88.33
65760;BME280;52496;51.082;5.066;2023-02-26T08:30:17;102233.75;;;0.82;89.63
65760;BME280;52496;51.082;5.066;2023-02-26T08:32:48;102229.75;;;0.90;89.40
65760;BME280;52496;51.082;5.066;2023-02-26T08:35:19;102240.53;;;1.02;88.98
65760;BME280;52496;51.082;5.066;2023-02-26T08:37:53;102245.19;;;1.12;88.99
65760;BME280;52496;51.082;5.066;2023-02-26T08:40:23;102245.41;;;1.24;88.32
65760;BME280;52496;51.082;5.066;2023-02-26T08:42:54;102260.63;;;1.34;87.18
65760;BME280;52496;51.082;5.066;2023-02-26T08:45:24;102264.59;;;1.42;86.32
65760;BME280;52496;51.082;5.066;2023-02-26T08:47:55;102257.06;;;1.50;86.24
65760;BME280;52496;51.082;5.066;2023-02-26T08:50:26;102270.63;;;1.58;84.06
65760;BME280;52496;51.082;5.066;2023-02-26T08:52:56;102277.34;;;1.64;82.73
65760;BME280;52496;51.082;5.066;2023-02-26T08:55:27;102285.66;;;1.72;84.91
65760;BME280;52496;51.082;5.066;2023-02-26T08:57:57;102273.72;;;1.80;83.90
65760;BME280;52496;51.082;5.066;2023-02-26T09:00:28;102282.69;;;1.92;83.16
65760;BME280;52496;51.082;5.066;2023-02-26T09:02:59;102284.66;;;2.03;82.42
65760;BME280;52496;51.082;5.066;2023-02-26T09:05:29;102298.22;;;2.11;81.92
65760;BME280;52496;51.082;5.066;2023-02-26T09:08:00;102303.13;;;2.17;81.06
65760;BME280;52496;51.082;5.066;2023-02-26T09:10:30;102302.75;;;2.23;79.74
65760;BME280;52496;51.082;5.066;2023-02-26T09:13:01;102305.97;;;2.28;80.36
65760;BME280;52496;51.082;5.066;2023-02-26T09:15:31;102307.94;;;2.39;79.97
65760;BME280;52496;51.082;5.066;2023-02-26T09:18:02;102308.19;;;2.49;81.08
65760;BME280;52496;51.082;5.066;2023-02-26T09:20:33;102300.47;;;2.60;79.02
65760;BME280;52496;51.082;5.066;2023-02-26T09:23:03;102310.44;;;2.69;79.35
65760;BME280;52496;51.082;5.066;2023-02-26T09:25:34;102311.53;;;2.80;79.21
65760;BME280;52496;51.082;5.066;2023-02-26T09:28:04;102320.88;;;2.85;78.05
65760;BME280;52496;51.082;5.066;2023-02-26T09:30:35;102319.25;;;2.97;77.71
65760;BME280;52496;51.082;5.066;2023-02-26T09:33:06;102324.78;;;3.07;76.52
65760;BME280;52496;51.082;5.066;2023-02-26T09:35:36;102340.25;;;3.13;74.75
65760;BME280;52496;51.082;5.066;2023-02-26T09:38:07;102330.31;;;3.16;74.35
65760;BME280;52496;51.082;5.066;2023-02-26T09:40:50;102322.94;;;3.21;75.11
65760;BME280;52496;51.082;5.066;2023-02-26T09:49:15;102346.19;;;3.43;71.57
65760;BME280;52496;51.082;5.066;2023-02-26T09:51:50;102340.00;;;3.57;70.02
65760;BME280;52496;51.082;5.066;2023-02-26T09:54:25;102341.47;;;3.61;70.64
65760;BME280;52496;51.082;5.066;2023-02-26T09:56:59;102345.31;;;3.70;69.62
65760;BME280;52496;51.082;5.066;2023-02-26T09:59:32;102346.56;;;3.77;69.95
65760;BME280;52496;51.082;5.066;2023-02-26T10:07:32;102363.78;;;4.23;68.08
65760;BME280;52496;51.082;5.066;2023-02-26T10:10:28;102365.06;;;4.30;61.62
65760;BME280;52496;51.082;5.066;2023-02-26T10:13:02;102367.19;;;4.25;60.96
65760;BME280;52496;51.082;5.066;2023-02-26T10:15:41;102367.81;;;4.28;60.51
65760;BME280;52496;51.082;5.066;2023-02-26T10:18:23;102377.56;;;4.28;62.38
65760;BME280;52496;51.082;5.066;2023-02-26T10:21:10;102373.75;;;4.45;61.29
65760;BME280;52496;51.082;5.066;2023-02-26T10:23:48;102379.88;;;4.58;58.75
65760;BME280;52496;51.082;5.066;2023-02-26T10:26:29;102384.88;;;4.63;59.42
65760;BME280;52496;51.082;5.066;2023-02-26T10:34:53;102388.13;;;4.79;57.14
65760;BME280;52496;51.082;5.066;2023-02-26T10:37:47;102397.25;;;4.62;57.78
65760;BME280;52496;51.082;5.066;2023-02-26T10:40:41;102392.31;;;4.45;56.77
65760;BME280;52496;51.082;5.066;2023-02-26T10:46:01;102389.66;;;4.45;60.01
65760;BME280;52496;51.082;5.066;2023-02-26T10:52:13;102407.53;;;4.41;57.16
65760;BME280;52496;51.082;5.066;2023-02-26T10:57:24;102400.63;;;4.00;59.04
65760;BME280;52496;51.082;5.066;2023-02-26T10:59:56;102405.50;;;3.94;59.72
65760;BME280;52496;51.082;5.066;2023-02-26T11:02:41;102403.34;;;3.86;58.80
65760;BME280;52496;51.082;5.066;2023-02-26T11:05:24;102407.56;;;3.76;59.79
65760;BME280;52496;51.082;5.066;2023-02-26T11:08:02;102411.38;;;3.72;61.26
65760;BME280;52496;51.082;5.066;2023-02-26T11:10:52;102404.34;;;3.71;59.41
65760;BME280;52496;51.082;5.066;2023-02-26T11:13:26;102416.66;;;3.72;59.82
65760;BME280;52496;51.082;5.066;2023-02-26T11:16:02;102411.38;;;3.72;58.91
65760;BME280;52496;51.082;5.066;2023-02-26T11:21:17;102411.41;;;3.84;59.61
65760;BME280;52496;51.082;5.066;2023-02-26T11:23:54;102410.38;;;4.00;58.67
65760;BME280;52496;51.082;5.066;2023-02-26T11:26:31;102406.06;;;4.37;60.09
65760;BME280;52496;51.082;5.066;2023-02-26T11:29:05;102407.53;;;4.79;58.47
65760;BME280;52496;51.082;5.066;2023-02-26T11:31:37;102417.13;;;5.06;57.63
65760;BME280;52496;51.082;5.066;2023-02-26T11:34:10;102408.81;;;5.11;58.06
65760;BME280;52496;51.082;5.066;2023-02-26T11:36:43;102411.63;;;5.33;58.81
65760;BME280;52496;51.082;5.066;2023-02-26T11:39:21;102407.72;;;5.74;58.27
65760;BME280;52496;51.082;5.066;2023-02-26T11:41:56;102416.44;;;5.76;56.36
65760;BME280;52496;51.082;5.066;2023-02-26T11:47:18;102418.19;;;5.03;56.28
65760;BME280;52496;51.082;5.066;2023-02-26T11:49:52;102411.22;;;4.77;58.50
65760;BME280;52496;51.082;5.066;2023-02-26T11:52:29;102417.94;;;4.70;57.75
65760;BME280;52496;51.082;5.066;2023-02-26T11:55:15;102418.25;;;4.52;57.04
65760;BME280;52496;51.082;5.066;2023-02-26T11:57:51;102410.84;;;4.57;57.32
65760;BME280;52496;51.082;5.066;2023-02-26T12:00:34;102418.19;;;5.03;54.96
65760;BME280;52496;51.082;5.066;2023-02-26T12:03:09;102413.84;;;5.39;53.21
65760;BME280;52496;51.082;5.066;2023-02-26T12:05:45;102413.94;;;5.62;52.79
65760;BME280;52496;51.082;5.066;2023-02-26T12:08:32;102420.94;;;5.87;50.40
65760;BME280;52496;51.082;5.066;2023-02-26T12:11:34;102418.50;;;6.08;49.07
65760;BME280;52496;51.082;5.066;2023-02-26T12:14:40;102425.25;;;6.01;50.00
65760;BME280;52496;51.082;5.066;2023-02-26T12:26:12;102417.34;;;6.23;51.70
65760;BME280;52496;51.082;5.066;2023-02-26T12:35:02;102418.00;;;6.94;47.72
65760;BME280;52496;51.082;5.066;2023-02-26T12:38:07;102412.50;;;7.18;48.99
65760;BME280;52496;51.082;5.066;2023-02-26T12:41:14;102425.34;;;7.24;47.25
65760;BME280;52496;51.082;5.066;2023-02-26T12:43:49;102414.47;;;7.16;47.76
65760;BME280;52496;51.082;5.066;2023-02-26T12:52:27;102420.63;;;7.17;46.73
65760;BME280;52496;51.082;5.066;2023-02-26T12:55:13;102423.41;;;7.15;44.47
65760;BME280;52496;51.082;5.066;2023-02-26T13:01:27;102429.47;;;6.61;44.34
65760;BME280;52496;51.082;5.066;2023-02-26T13:04:33;102433.09;;;6.60;45.23
65760;BME280;52496;51.082;5.066;2023-02-26T13:10:50;102421.50;;;6.72;43.32
65760;BME280;52496;51.082;5.066;2023-02-26T13:21:36;102427.03;;;7.37;44.00
65760;BME280;52496;51.082;5.066;2023-02-26T13:24:17;102422.75;;;7.45;44.55
65760;BME280;52496;51.082;5.066;2023-02-26T13:26:51;102430.22;;;7.51;42.93
65760;BME280;52496;51.082;5.066;2023-02-26T13:29:31;102441.53;;;7.32;42.32
65760;BME280;52496;51.082;5.066;2023-02-26T13:32:11;102430.19;;;7.30;42.93
65760;BME280;52496;51.082;5.066;2023-02-26T13:34:56;102430.97;;;7.42;44.17
65760;BME280;52496;51.082;5.066;2023-02-26T13:37:38;102425.78;;;7.52;43.26
65760;BME280;52496;51.082;5.066;2023-02-26T13:42:55;102414.78;;;7.77;43.41
65760;BME280;52496;51.082;5.066;2023-02-26T13:51:38;102418.38;;;7.55;42.51
65760;BME280;52496;51.082;5.066;2023-02-26T13:56:48;102423.56;;;6.91;44.05
65760;BME280;52496;51.082;5.066;2023-02-26T13:59:29;102402.59;;;7.09;45.00
65760;BME280;52496;51.082;5.066;2023-02-26T14:04:54;102407.16;;;7.41;43.43
65760;BME280;52496;51.082;5.066;2023-02-26T14:08:17;102412.31;;;7.53;44.35
65760;BME280;52496;51.082;5.066;2023-02-26T14:10:56;102412.88;;;7.68;43.74
65760;BME280;52496;51.082;5.066;2023-02-26T14:13:36;102408.84;;;7.42;44.07
65760;BME280;52496;51.082;5.066;2023-02-26T14:16:21;102406.72;;;7.13;43.65
65760;BME280;52496;51.082;5.066;2023-02-26T14:19:17;102417.03;;;6.95;44.36
65760;BME280;52496;51.082;5.066;2023-02-26T14:22:35;102428.16;;;7.00;42.56
65760;BME280;52496;51.082;5.066;2023-02-26T14:27:41;102415.09;;;6.97;42.70
65760;BME280;52496;51.082;5.066;2023-02-26T14:30:27;102420.03;;;7.02;43.83
65760;BME280;52496;51.082;5.066;2023-02-26T14:35:42;102418.56;;;7.20;43.01
65760;BME280;52496;51.082;5.066;2023-02-26T14:38:22;102412.28;;;7.21;41.92
65760;BME280;52496;51.082;5.066;2023-02-26T14:41:02;102420.53;;;7.07;41.18
65760;BME280;52496;51.082;5.066;2023-02-26T14:43:39;102421.03;;;7.01;42.24
65760;BME280;52496;51.082;5.066;2023-02-26T14:46:11;102405.91;;;7.01;43.77
65760;BME280;52496;51.082;5.066;2023-02-26T14:48:42;102402.28;;;6.91;43.14
65760;BME280;52496;51.082;5.066;2023-02-26T14:51:44;102411.34;;;6.88;43.29
65760;BME280;52496;51.082;5.066;2023-02-26T15:03:19;102413.56;;;6.14;44.70
65760;BME280;52496;51.082;5.066;2023-02-26T15:08:59;102413.41;;;5.81;45.25
65760;BME280;52496;51.082;5.066;2023-02-26T15:17:03;102409.31;;;5.52;46.41
65760;BME280;52496;51.082;5.066;2023-02-26T15:20:04;102413.19;;;5.48;46.84
65760;BME280;52496;51.082;5.066;2023-02-26T15:25:29;102409.56;;;5.49;47.63
65760;BME280;52496;51.082;5.066;2023-02-26T15:28:02;102418.47;;;5.48;46.68
65760;BME280;52496;51.082;5.066;2023-02-26T15:30:36;102415.44;;;5.42;46.74
65760;BME280;52496;51.082;5.066;2023-02-26T15:33:13;102408.75;;;5.36;47.66
65760;BME280;52496;51.082;5.066;2023-02-26T15:35:48;102412.56;;;5.32;48.46
65760;BME280;52496;51.082;5.066;2023-02-26T15:38:21;102417.25;;;5.28;48.76
65760;BME280;52496;51.082;5.066;2023-02-26T15:41:02;102423.63;;;5.26;48.88
65760;BME280;52496;51.082;5.066;2023-02-26T15:43:33;102418.56;;;5.23;49.19
65760;BME280;52496;51.082;5.066;2023-02-26T15:46:04;102420.72;;;5.18;49.23
65760;BME280;52496;51.082;5.066;2023-02-26T15:48:37;102428.75;;;5.16;48.49
65760;BME280;52496;51.082;5.066;2023-02-26T15:51:13;102430.03;;;5.11;49.40
65760;BME280;52496;51.082;5.066;2023-02-26T15:53:48;102435.56;;;5.07;48.08
65760;BME280;52496;51.082;5.066;2023-02-26T15:56:22;102421.69;;;5.04;49.29
65760;BME280;52496;51.082;5.066;2023-02-26T15:58:59;102420.09;;;5.01;49.17
65760;BME280;52496;51.082;5.066;2023-02-26T16:01:31;102426.38;;;5.00;50.45
65760;BME280;52496;51.082;5.066;2023-02-26T16:04:07;102424.03;;;4.96;49.27
65760;BME280;52496;51.082;5.066;2023-02-26T16:06:51;102426.91;;;4.93;50.26
65760;BME280;52496;51.082;5.066;2023-02-26T16:09:32;102424.47;;;4.90;49.64
65760;BME280;52496;51.082;5.066;2023-02-26T16:12:07;102417.59;;;4.87;49.96
65760;BME280;52496;51.082;5.066;2023-02-26T16:14:41;102429.97;;;4.87;50.82